sensor_id;sensor_type;location;lat;lon;timestamp;P1;durP1;ratioP1;P2;durP2;ratioP2
44048;SDS011;29717;47.028;15.470;2022-07-01T00:02:19;16.63;;;14.98;;
44048;SDS011;29717;47.028;15.470;2022-07-01T00:04:46;16.02;;;14.63;;
44048;SDS011;29717;47.028;15.470;2022-07-01T00:07:13;15.13;;;13.82;;
44048;SDS011;29717;47.028;15.470;2022-07-01T00:09:41;15.52;;;13.82;;
44048;SDS011;29717;47.028;15.470;2022-07-01T00:12:08;15.98;;;14.45;;
44048;SDS011;29717;47.028;15.470;2022-07-01T00:14:36;15.15;;;13.65;;
44048;SDS011;29717;47.028;15.470;2022-07-01T00:17:03;16.65;;;15.25;;
44048;SDS011;29717;47.028;15.470;2022-07-01T00:19:30;15.93;;;14.48;;
44048;SDS011;29717;47.028;15.470;2022-07-01T00:21:57;15.70;;;14.25;;
44048;SDS011;29717;47.028;15.470;2022-07-01T00:24:24;16.58;;;14.93;;
44048;SDS011;29717;47.028;15.470;2022-07-01T00:26:52;16.70;;;15.00;;
44048;SDS011;29717;47.028;15.470;2022-07-01T00:29:18;16.58;;;14.93;;
44048;SDS011;29717;47.028;15.470;2022-07-01T00:31:47;17.05;;;15.25;;
44048;SDS011;29717;47.028;15.470;2022-07-01T00:34:14;16.52;;;15.15;;
44048;SDS011;29717;47.028;15.470;2022-07-01T00:36:40;16.83;;;15.27;;
44048;SDS011;29717;47.028;15.470;2022-07-01T00:39:07;17.98;;;15.35;;
44048;SDS011;29717;47.028;15.470;2022-07-01T00:41:34;16.95;;;15.27;;
44048;SDS011;29717;47.028;15.470;2022-07-01T00:44:01;15.73;;;14.27;;
44048;SDS011;29717;47.028;15.470;2022-07-01T00:46:27;16.55;;;15.05;;
44048;SDS011;29717;47.028;15.470;2022-07-01T00:48:58;16.40;;;14.75;;
44048;SDS011;29717;47.028;15.470;2022-07-01T00:51:25;17.35;;;15.65;;
44048;SDS011;29717;47.028;15.470;2022-07-01T00:53:52;19.75;;;15.77;;
44048;SDS011;29717;47.028;15.470;2022-07-01T00:56:19;17.08;;;15.45;;
44048;SDS011;29717;47.028;15.470;2022-07-01T00:58:46;17.05;;;15.55;;
44048;SDS011;29717;47.028;15.470;2022-07-01T01:01:13;17.40;;;15.85;;
44048;SDS011;29717;47.028;15.470;2022-07-01T01:03:39;18.48;;;16.58;;
44048;SDS011;29717;47.028;15.470;2022-07-01T01:06:08;19.15;;;16.10;;
44048;SDS011;29717;47.028;15.470;2022-07-01T01:08:35;16.85;;;15.23;;
44048;SDS011;29717;47.028;15.470;2022-07-01T01:11:03;21.40;;;16.27;;
44048;SDS011;29717;47.028;15.470;2022-07-01T01:13:30;17.33;;;15.57;;
44048;SDS011;29717;47.028;15.470;2022-07-01T01:15:57;18.20;;;16.23;;
44048;SDS011;29717;47.028;15.470;2022-07-01T01:18:24;17.50;;;15.55;;
44048;SDS011;29717;47.028;15.470;2022-07-01T01:20:53;20.27;;;16.70;;
44048;SDS011;29717;47.028;15.470;2022-07-01T01:23:20;17.52;;;15.65;;
44048;SDS011;29717;47.028;15.470;2022-07-01T01:25:47;18.08;;;16.27;;
44048;SDS011;29717;47.028;15.470;2022-07-01T01:28:14;17.27;;;15.82;;
44048;SDS011;29717;47.028;15.470;2022-07-01T01:30:41;17.50;;;15.93;;
44048;SDS011;29717;47.028;15.470;2022-07-01T01:33:08;17.27;;;15.77;;
44048;SDS011;29717;47.028;15.470;2022-07-01T01:35:37;17.48;;;15.77;;
44048;SDS011;29717;47.028;15.470;2022-07-01T01:38:05;19.67;;;15.80;;
44048;SDS011;29717;47.028;15.470;2022-07-01T01:40:32;16.05;;;14.48;;
44048;SDS011;29717;47.028;15.470;2022-07-01T01:42:59;17.52;;;15.68;;
44048;SDS011;29717;47.028;15.470;2022-07-01T01:45:26;16.83;;;15.10;;
44048;SDS011;29717;47.028;15.470;2022-07-01T01:47:56;18.92;;;16.08;;
44048;SDS011;29717;47.028;15.470;2022-07-01T01:50:23;17.80;;;16.30;;
44048;SDS011;29717;47.028;15.470;2022-07-01T01:52:50;18.63;;;16.73;;
44048;SDS011;29717;47.028;15.470;2022-07-01T01:55:18;18.45;;;16.67;;
44048;SDS011;29717;47.028;15.470;2022-07-01T01:57:45;17.90;;;16.13;;
44048;SDS011;29717;47.028;15.470;2022-07-01T02:00:12;18.52;;;16.73;;
44048;SDS011;29717;47.028;15.470;2022-07-01T02:02:39;19.17;;;17.27;;
44048;SDS011;29717;47.028;15.470;2022-07-01T02:05:08;19.60;;;17.50;;
44048;SDS011;29717;47.028;15.470;2022-07-01T02:07:37;18.38;;;16.65;;
44048;SDS011;29717;47.028;15.470;2022-07-01T02:10:04;18.88;;;17.17;;
44048;SDS011;29717;47.028;15.470;2022-07-01T02:12:32;20.35;;;16.65;;
44048;SDS011;29717;47.028;15.470;2022-07-01T02:14:59;18.40;;;16.67;;
44048;SDS011;29717;47.028;15.470;2022-07-01T02:17:26;17.85;;;16.20;;
44048;SDS011;29717;47.028;15.470;2022-07-01T02:19:53;18.95;;;17.00;;
44048;SDS011;29717;47.028;15.470;2022-07-01T02:22:20;17.95;;;16.23;;
44048;SDS011;29717;47.028;15.470;2022-07-01T02:24:47;18.15;;;16.48;;
44048;SDS011;29717;47.028;15.470;2022-07-01T02:27:13;18.67;;;17.10;;
44048;SDS011;29717;47.028;15.470;2022-07-01T02:29:42;19.38;;;17.58;;
44048;SDS011;29717;47.028;15.470;2022-07-01T02:32:09;17.95;;;16.10;;
44048;SDS011;29717;47.028;15.470;2022-07-01T02:34:36;18.30;;;16.50;;
44048;SDS011;29717;47.028;15.470;2022-07-01T02:37:02;19.38;;;16.00;;
44048;SDS011;29717;47.028;15.470;2022-07-01T02:39:29;18.08;;;16.45;;
44048;SDS011;29717;47.028;15.470;2022-07-01T02:41:56;18.42;;;16.75;;
44048;SDS011;29717;47.028;15.470;2022-07-01T02:44:41;19.20;;;17.05;;
44048;SDS011;29717;47.028;15.470;2022-07-01T02:47:08;18.17;;;16.58;;
44048;SDS011;29717;47.028;15.470;2022-07-01T02:49:35;18.35;;;16.48;;
44048;SDS011;29717;47.028;15.470;2022-07-01T02:52:01;22.35;;;17.02;;
44048;SDS011;29717;47.028;15.470;2022-07-01T02:54:28;19.58;;;17.20;;
44048;SDS011;29717;47.028;15.470;2022-07-01T02:56:55;20.10;;;18.13;;
44048;SDS011;29717;47.028;15.470;2022-07-01T02:59:22;19.98;;;17.67;;
44048;SDS011;29717;47.028;15.470;2022-07-01T03:01:50;20.52;;;18.52;;
44048;SDS011;29717;47.028;15.470;2022-07-01T03:04:17;20.73;;;18.35;;
44048;SDS011;29717;47.028;15.470;2022-07-01T03:06:44;19.27;;;17.50;;
44048;SDS011;29717;47.028;15.470;2022-07-01T03:09:11;23.35;;;18.48;;
44048;SDS011;29717;47.028;15.470;2022-07-01T03:11:37;19.15;;;17.40;;
44048;SDS011;29717;47.028;15.470;2022-07-01T03:14:04;20.40;;;18.27;;
44048;SDS011;29717;47.028;15.470;2022-07-01T03:16:31;21.15;;;18.10;;
44048;SDS011;29717;47.028;15.470;2022-07-01T03:18:59;20.58;;;17.95;;
44048;SDS011;29717;47.028;15.470;2022-07-01T03:21:27;24.67;;;18.45;;
44048;SDS011;29717;47.028;15.470;2022-07-01T03:23:54;20.17;;;18.17;;
44048;SDS011;29717;47.028;15.470;2022-07-01T03:26:20;21.27;;;18.63;;
44048;SDS011;29717;47.028;15.470;2022-07-01T03:28:47;18.67;;;16.83;;
44048;SDS011;29717;47.028;15.470;2022-07-01T03:31:14;18.60;;;16.67;;
44048;SDS011;29717;47.028;15.470;2022-07-01T03:33:41;18.73;;;17.13;;
44048;SDS011;29717;47.028;15.470;2022-07-01T03:36:09;20.08;;;18.13;;
44048;SDS011;29717;47.028;15.470;2022-07-01T03:38:36;18.85;;;16.95;;
44048;SDS011;29717;47.028;15.470;2022-07-01T03:41:02;19.20;;;17.25;;
44048;SDS011;29717;47.028;15.470;2022-07-01T03:43:29;19.35;;;17.35;;
44048;SDS011;29717;47.028;15.470;2022-07-01T03:45:56;18.90;;;16.95;;
44048;SDS011;29717;47.028;15.470;2022-07-01T03:48:23;18.95;;;17.13;;
44048;SDS011;29717;47.028;15.470;2022-07-01T03:50:51;19.33;;;17.27;;
44048;SDS011;29717;47.028;15.470;2022-07-01T03:53:19;19.15;;;17.25;;
44048;SDS011;29717;47.028;15.470;2022-07-01T03:56:03;19.35;;;17.25;;
44048;SDS011;29717;47.028;15.470;2022-07-01T03:58:30;21.52;;;18.75;;
44048;SDS011;29717;47.028;15.470;2022-07-01T04:00:56;19.77;;;17.60;;
44048;SDS011;29717;47.028;15.470;2022-07-01T04:03:23;21.52;;;19.58;;
44048;SDS011;29717;47.028;15.470;2022-07-01T04:05:50;20.67;;;18.10;;
44048;SDS011;29717;47.028;15.470;2022-07-01T04:08:18;20.65;;;18.60;;
44048;SDS011;29717;47.028;15.470;2022-07-01T04:10:45;19.45;;;17.65;;
44048;SDS011;29717;47.028;15.470;2022-07-01T04:13:12;20.85;;;18.75;;
44048;SDS011;29717;47.028;15.470;2022-07-01T04:15:39;20.70;;;18.70;;
44048;SDS011;29717;47.028;15.470;2022-07-01T04:18:05;21.90;;;19.70;;
44048;SDS011;29717;47.028;15.470;2022-07-01T04:20:33;24.85;;;21.17;;
44048;SDS011;29717;47.028;15.470;2022-07-01T04:23:00;24.02;;;21.67;;
44048;SDS011;29717;47.028;15.470;2022-07-01T04:25:27;24.55;;;22.17;;
44048;SDS011;29717;47.028;15.470;2022-07-01T04:27:55;28.48;;;20.95;;
44048;SDS011;29717;47.028;15.470;2022-07-01T04:30:22;25.52;;;21.48;;
44048;SDS011;29717;47.028;15.470;2022-07-01T04:32:49;26.05;;;21.48;;
44048;SDS011;29717;47.028;15.470;2022-07-01T04:35:15;21.23;;;19.02;;
44048;SDS011;29717;47.028;15.470;2022-07-01T04:37:42;22.98;;;20.85;;
44048;SDS011;29717;47.028;15.470;2022-07-01T04:40:09;24.70;;;20.20;;
44048;SDS011;29717;47.028;15.470;2022-07-01T04:42:38;21.65;;;19.27;;
44048;SDS011;29717;47.028;15.470;2022-07-01T04:45:04;22.92;;;20.27;;
44048;SDS011;29717;47.028;15.470;2022-07-01T04:47:31;20.38;;;18.35;;
44048;SDS011;29717;47.028;15.470;2022-07-01T04:49:58;23.15;;;20.75;;
44048;SDS011;29717;47.028;15.470;2022-07-01T04:52:27;24.33;;;20.90;;
44048;SDS011;29717;47.028;15.470;2022-07-01T04:54:54;22.25;;;20.05;;
44048;SDS011;29717;47.028;15.470;2022-07-01T04:57:21;24.58;;;19.85;;
44048;SDS011;29717;47.028;15.470;2022-07-01T04:59:49;20.83;;;18.83;;
44048;SDS011;29717;47.028;15.470;2022-07-01T05:02:16;22.45;;;19.77;;
44048;SDS011;29717;47.028;15.470;2022-07-01T05:04:43;22.00;;;19.98;;
44048;SDS011;29717;47.028;15.470;2022-07-01T05:07:09;21.63;;;19.77;;
44048;SDS011;29717;47.028;15.470;2022-07-01T05:09:54;20.02;;;17.95;;
44048;SDS011;29717;47.028;15.470;2022-07-01T05:12:20;21.33;;;19.17;;
44048;SDS011;29717;47.028;15.470;2022-07-01T05:14:49;20.90;;;18.65;;
44048;SDS011;29717;47.028;15.470;2022-07-01T05:17:16;20.17;;;18.30;;
44048;SDS011;29717;47.028;15.470;2022-07-01T05:19:42;22.13;;;19.05;;
44048;SDS011;29717;47.028;15.470;2022-07-01T05:22:27;20.45;;;18.45;;
44048;SDS011;29717;47.028;15.470;2022-07-01T05:24:54;19.92;;;17.95;;
44048;SDS011;29717;47.028;15.470;2022-07-01T05:27:20;20.50;;;18.50;;
44048;SDS011;29717;47.028;15.470;2022-07-01T05:29:51;20.75;;;18.70;;
44048;SDS011;29717;47.028;15.470;2022-07-01T05:32:18;19.83;;;17.52;;
44048;SDS011;29717;47.028;15.470;2022-07-01T05:34:45;21.38;;;17.92;;
44048;SDS011;29717;47.028;15.470;2022-07-01T05:37:12;21.45;;;17.58;;
44048;SDS011;29717;47.028;15.470;2022-07-01T05:39:42;18.02;;;16.25;;
44048;SDS011;29717;47.028;15.470;2022-07-01T05:42:09;18.77;;;16.90;;
44048;SDS011;29717;47.028;15.470;2022-07-01T05:44:38;20.58;;;16.42;;
44048;SDS011;29717;47.028;15.470;2022-07-01T05:47:09;19.80;;;16.80;;
44048;SDS011;29717;47.028;15.470;2022-07-01T05:49:37;17.65;;;15.82;;
44048;SDS011;29717;47.028;15.470;2022-07-01T05:52:05;17.65;;;15.55;;
44048;SDS011;29717;47.028;15.470;2022-07-01T05:54:32;16.75;;;15.10;;
44048;SDS011;29717;47.028;15.470;2022-07-01T05:56:59;16.30;;;14.75;;
44048;SDS011;29717;47.028;15.470;2022-07-01T05:59:26;18.30;;;15.48;;
44048;SDS011;29717;47.028;15.470;2022-07-01T06:01:56;20.48;;;14.77;;
44048;SDS011;29717;47.028;15.470;2022-07-01T06:04:44;15.60;;;14.05;;
44048;SDS011;29717;47.028;15.470;2022-07-01T06:07:33;15.10;;;13.35;;
44048;SDS011;29717;47.028;15.470;2022-07-01T06:10:21;15.38;;;13.55;;
44048;SDS011;29717;47.028;15.470;2022-07-01T06:13:12;15.05;;;13.52;;
44048;SDS011;29717;47.028;15.470;2022-07-01T06:16:02;15.80;;;14.07;;
44048;SDS011;29717;47.028;15.470;2022-07-01T06:18:50;13.55;;;12.35;;
44048;SDS011;29717;47.028;15.470;2022-07-01T06:21:51;14.38;;;12.88;;
44048;SDS011;29717;47.028;15.470;2022-07-01T06:24:52;15.73;;;12.43;;
44048;SDS011;29717;47.028;15.470;2022-07-01T06:30:37;14.02;;;11.75;;
44048;SDS011;29717;47.028;15.470;2022-07-01T06:33:24;13.30;;;11.95;;
44048;SDS011;29717;47.028;15.470;2022-07-01T06:36:28;13.20;;;10.48;;
44048;SDS011;29717;47.028;15.470;2022-07-01T06:39:47;12.40;;;10.80;;
44048;SDS011;29717;47.028;15.470;2022-07-01T06:42:23;12.13;;;9.82;;
44048;SDS011;29717;47.028;15.470;2022-07-01T06:44:49;16.45;;;11.00;;
44048;SDS011;29717;47.028;15.470;2022-07-01T06:47:17;12.70;;;11.10;;
44048;SDS011;29717;47.028;15.470;2022-07-01T06:49:44;15.73;;;10.80;;
44048;SDS011;29717;47.028;15.470;2022-07-01T06:52:11;12.88;;;10.73;;
44048;SDS011;29717;47.028;15.470;2022-07-01T06:54:40;12.75;;;9.55;;
44048;SDS011;29717;47.028;15.470;2022-07-01T06:57:07;11.77;;;9.15;;
44048;SDS011;29717;47.028;15.470;2022-07-01T06:59:34;12.80;;;9.18;;
44048;SDS011;29717;47.028;15.470;2022-07-01T07:02:01;12.90;;;9.07;;
44048;SDS011;29717;47.028;15.470;2022-07-01T07:04:28;11.55;;;8.77;;
44048;SDS011;29717;47.028;15.470;2022-07-01T07:06:55;10.95;;;8.75;;
44048;SDS011;29717;47.028;15.470;2022-07-01T07:09:22;15.68;;;10.90;;
44048;SDS011;29717;47.028;15.470;2022-07-01T07:11:51;15.10;;;10.90;;
44048;SDS011;29717;47.028;15.470;2022-07-01T07:14:19;14.55;;;10.38;;
44048;SDS011;29717;47.028;15.470;2022-07-01T07:16:46;15.30;;;10.77;;
44048;SDS011;29717;47.028;15.470;2022-07-01T07:19:16;17.05;;;10.88;;
44048;SDS011;29717;47.028;15.470;2022-07-01T07:21:43;11.85;;;9.30;;
44048;SDS011;29717;47.028;15.470;2022-07-01T07:24:10;15.20;;;10.13;;
44048;SDS011;29717;47.028;15.470;2022-07-01T07:26:37;13.85;;;9.80;;
44048;SDS011;29717;47.028;15.470;2022-07-01T07:29:06;13.50;;;8.95;;
44048;SDS011;29717;47.028;15.470;2022-07-01T07:31:33;12.45;;;8.98;;
44048;SDS011;29717;47.028;15.470;2022-07-01T07:33:59;12.38;;;7.63;;
44048;SDS011;29717;47.028;15.470;2022-07-01T07:36:26;13.38;;;7.38;;
44048;SDS011;29717;47.028;15.470;2022-07-01T07:38:53;10.00;;;6.15;;
44048;SDS011;29717;47.028;15.470;2022-07-01T07:41:20;9.77;;;6.50;;
44048;SDS011;29717;47.028;15.470;2022-07-01T07:43:47;11.15;;;7.07;;
44048;SDS011;29717;47.028;15.470;2022-07-01T07:46:16;10.10;;;5.90;;
44048;SDS011;29717;47.028;15.470;2022-07-01T07:48:43;10.82;;;5.78;;
44048;SDS011;29717;47.028;15.470;2022-07-01T07:51:10;9.70;;;6.32;;
44048;SDS011;29717;47.028;15.470;2022-07-01T07:53:41;8.48;;;5.55;;
44048;SDS011;29717;47.028;15.470;2022-07-01T07:56:08;11.60;;;6.40;;
44048;SDS011;29717;47.028;15.470;2022-07-01T07:58:35;7.80;;;5.93;;
44048;SDS011;29717;47.028;15.470;2022-07-01T08:01:02;9.10;;;7.10;;
44048;SDS011;29717;47.028;15.470;2022-07-01T08:03:31;12.63;;;7.05;;
44048;SDS011;29717;47.028;15.470;2022-07-01T08:05:59;11.90;;;7.00;;
44048;SDS011;29717;47.028;15.470;2022-07-01T08:08:26;8.98;;;6.20;;
44048;SDS011;29717;47.028;15.470;2022-07-01T08:10:53;12.50;;;6.88;;
44048;SDS011;29717;47.028;15.470;2022-07-01T08:13:20;12.13;;;6.28;;
44048;SDS011;29717;47.028;15.470;2022-07-01T08:15:48;10.63;;;6.50;;
44048;SDS011;29717;47.028;15.470;2022-07-01T08:18:15;9.82;;;7.47;;
44048;SDS011;29717;47.028;15.470;2022-07-01T08:20:44;11.85;;;6.40;;
44048;SDS011;29717;47.028;15.470;2022-07-01T08:23:11;8.63;;;6.03;;
44048;SDS011;29717;47.028;15.470;2022-07-01T08:25:39;7.45;;;5.07;;
44048;SDS011;29717;47.028;15.470;2022-07-01T08:28:06;10.07;;;6.45;;
44048;SDS011;29717;47.028;15.470;2022-07-01T08:30:33;13.35;;;5.80;;
44048;SDS011;29717;47.028;15.470;2022-07-01T08:33:01;7.40;;;6.25;;
44048;SDS011;29717;47.028;15.470;2022-07-01T08:35:29;9.82;;;5.78;;
44048;SDS011;29717;47.028;15.470;2022-07-01T08:37:57;8.65;;;6.10;;
44048;SDS011;29717;47.028;15.470;2022-07-01T08:40:25;6.85;;;6.15;;
44048;SDS011;29717;47.028;15.470;2022-07-01T08:42:54;9.63;;;6.15;;
44048;SDS011;29717;47.028;15.470;2022-07-01T08:45:22;8.65;;;6.72;;
44048;SDS011;29717;47.028;15.470;2022-07-01T08:47:50;8.07;;;5.90;;
44048;SDS011;29717;47.028;15.470;2022-07-01T08:50:17;9.52;;;5.53;;
44048;SDS011;29717;47.028;15.470;2022-07-01T08:52:44;10.13;;;5.40;;
44048;SDS011;29717;47.028;15.470;2022-07-01T08:55:13;7.68;;;5.07;;
44048;SDS011;29717;47.028;15.470;2022-07-01T08:57:40;7.75;;;5.70;;
44048;SDS011;29717;47.028;15.470;2022-07-01T09:00:07;6.55;;;5.13;;
44048;SDS011;29717;47.028;15.470;2022-07-01T09:02:53;7.65;;;5.00;;
44048;SDS011;29717;47.028;15.470;2022-07-01T09:05:23;7.95;;;5.00;;
44048;SDS011;29717;47.028;15.470;2022-07-01T09:07:55;6.68;;;4.65;;
44048;SDS011;29717;47.028;15.470;2022-07-01T09:10:23;9.13;;;4.95;;
44048;SDS011;29717;47.028;15.470;2022-07-01T09:12:50;5.45;;;4.93;;
44048;SDS011;29717;47.028;15.470;2022-07-01T09:15:24;9.25;;;5.57;;
44048;SDS011;29717;47.028;15.470;2022-07-01T09:17:55;10.02;;;5.60;;
44048;SDS011;29717;47.028;15.470;2022-07-01T09:20:25;8.07;;;5.20;;
44048;SDS011;29717;47.028;15.470;2022-07-01T09:23:03;8.60;;;4.55;;
44048;SDS011;29717;47.028;15.470;2022-07-01T09:25:33;7.63;;;5.10;;
44048;SDS011;29717;47.028;15.470;2022-07-01T09:28:04;7.25;;;5.18;;
44048;SDS011;29717;47.028;15.470;2022-07-01T09:30:31;8.15;;;4.68;;
44048;SDS011;29717;47.028;15.470;2022-07-01T09:33:08;8.30;;;5.00;;
44048;SDS011;29717;47.028;15.470;2022-07-01T09:35:35;8.40;;;4.75;;
44048;SDS011;29717;47.028;15.470;2022-07-01T09:38:02;9.13;;;5.28;;
44048;SDS011;29717;47.028;15.470;2022-07-01T09:40:46;10.07;;;4.85;;
44048;SDS011;29717;47.028;15.470;2022-07-01T09:43:14;10.40;;;5.43;;
44048;SDS011;29717;47.028;15.470;2022-07-01T09:45:48;6.13;;;4.40;;
44048;SDS011;29717;47.028;15.470;2022-07-01T09:48:15;5.63;;;4.22;;
44048;SDS011;29717;47.028;15.470;2022-07-01T09:50:41;7.22;;;4.57;;
44048;SDS011;29717;47.028;15.470;2022-07-01T09:53:09;10.10;;;4.97;;
44048;SDS011;29717;47.028;15.470;2022-07-01T09:55:36;8.02;;;4.38;;
44048;SDS011;29717;47.028;15.470;2022-07-01T09:58:06;7.63;;;3.90;;
44048;SDS011;29717;47.028;15.470;2022-07-01T10:00:33;8.48;;;4.45;;
44048;SDS011;29717;47.028;15.470;2022-07-01T10:03:04;7.65;;;4.15;;
44048;SDS011;29717;47.028;15.470;2022-07-01T10:05:36;8.63;;;4.68;;
44048;SDS011;29717;47.028;15.470;2022-07-01T10:08:07;5.82;;;4.20;;
44048;SDS011;29717;47.028;15.470;2022-07-01T10:10:40;7.95;;;4.35;;
44048;SDS011;29717;47.028;15.470;2022-07-01T10:13:13;5.18;;;4.03;;
44048;SDS011;29717;47.028;15.470;2022-07-01T10:15:41;7.40;;;4.28;;
44048;SDS011;29717;47.028;15.470;2022-07-01T10:18:20;7.40;;;4.20;;
44048;SDS011;29717;47.028;15.470;2022-07-01T10:20:48;7.25;;;4.15;;
44048;SDS011;29717;47.028;15.470;2022-07-01T10:23:16;8.75;;;4.32;;
44048;SDS011;29717;47.028;15.470;2022-07-01T10:25:46;6.88;;;3.97;;
44048;SDS011;29717;47.028;15.470;2022-07-01T10:28:18;6.05;;;3.80;;
44048;SDS011;29717;47.028;15.470;2022-07-01T10:30:53;6.10;;;4.15;;
44048;SDS011;29717;47.028;15.470;2022-07-01T10:33:31;7.95;;;3.40;;
44048;SDS011;29717;47.028;15.470;2022-07-01T10:36:08;6.57;;;3.35;;
44048;SDS011;29717;47.028;15.470;2022-07-01T10:41:26;6.40;;;3.83;;
44048;SDS011;29717;47.028;15.470;2022-07-01T10:43:55;9.18;;;3.45;;
44048;SDS011;29717;47.028;15.470;2022-07-01T10:46:38;5.32;;;3.60;;
44048;SDS011;29717;47.028;15.470;2022-07-01T10:49:06;6.45;;;3.55;;
44048;SDS011;29717;47.028;15.470;2022-07-01T10:51:45;7.28;;;3.45;;
44048;SDS011;29717;47.028;15.470;2022-07-01T10:54:12;7.65;;;3.13;;
44048;SDS011;29717;47.028;15.470;2022-07-01T10:56:39;5.75;;;3.58;;
44048;SDS011;29717;47.028;15.470;2022-07-01T10:59:16;10.50;;;3.55;;
44048;SDS011;29717;47.028;15.470;2022-07-01T11:01:44;7.97;;;2.97;;
44048;SDS011;29717;47.028;15.470;2022-07-01T11:04:11;5.97;;;3.67;;
44048;SDS011;29717;47.028;15.470;2022-07-01T11:06:38;4.97;;;3.05;;
44048;SDS011;29717;47.028;15.470;2022-07-01T11:09:05;6.38;;;2.97;;
44048;SDS011;29717;47.028;15.470;2022-07-01T11:11:33;7.53;;;2.70;;
44048;SDS011;29717;47.028;15.470;2022-07-01T11:14:00;4.22;;;2.75;;
44048;SDS011;29717;47.028;15.470;2022-07-01T11:16:29;5.47;;;2.70;;
44048;SDS011;29717;47.028;15.470;2022-07-01T11:18:56;9.80;;;3.45;;
44048;SDS011;29717;47.028;15.470;2022-07-01T11:21:23;6.63;;;3.17;;
44048;SDS011;29717;47.028;15.470;2022-07-01T11:23:54;8.15;;;3.60;;
44048;SDS011;29717;47.028;15.470;2022-07-01T11:26:22;8.77;;;3.47;;
44048;SDS011;29717;47.028;15.470;2022-07-01T11:28:48;5.47;;;2.63;;
44048;SDS011;29717;47.028;15.470;2022-07-01T11:31:17;5.93;;;2.78;;
44048;SDS011;29717;47.028;15.470;2022-07-01T11:33:54;7.93;;;3.28;;
44048;SDS011;29717;47.028;15.470;2022-07-01T11:36:21;6.53;;;2.65;;
44048;SDS011;29717;47.028;15.470;2022-07-01T11:39:05;6.03;;;2.50;;
44048;SDS011;29717;47.028;15.470;2022-07-01T11:41:54;6.43;;;2.70;;
44048;SDS011;29717;47.028;15.470;2022-07-01T11:44:28;5.55;;;2.92;;
44048;SDS011;29717;47.028;15.470;2022-07-01T11:46:55;6.30;;;3.20;;
44048;SDS011;29717;47.028;15.470;2022-07-01T11:49:23;7.47;;;2.92;;
44048;SDS011;29717;47.028;15.470;2022-07-01T11:51:56;7.30;;;3.17;;
44048;SDS011;29717;47.028;15.470;2022-07-01T11:54:24;6.60;;;2.70;;
44048;SDS011;29717;47.028;15.470;2022-07-01T11:56:51;5.65;;;2.80;;
44048;SDS011;29717;47.028;15.470;2022-07-01T11:59:18;6.70;;;3.00;;
44048;SDS011;29717;47.028;15.470;2022-07-01T12:01:50;6.30;;;3.00;;
44048;SDS011;29717;47.028;15.470;2022-07-01T12:04:17;6.07;;;3.08;;
44048;SDS011;29717;47.028;15.470;2022-07-01T12:06:46;7.13;;;2.80;;
44048;SDS011;29717;47.028;15.470;2022-07-01T12:09:13;9.80;;;2.80;;
44048;SDS011;29717;47.028;15.470;2022-07-01T12:11:43;4.97;;;2.75;;
44048;SDS011;29717;47.028;15.470;2022-07-01T12:14:11;6.38;;;3.17;;
44048;SDS011;29717;47.028;15.470;2022-07-01T12:16:38;5.75;;;2.50;;
44048;SDS011;29717;47.028;15.470;2022-07-01T12:19:06;5.88;;;2.50;;
44048;SDS011;29717;47.028;15.470;2022-07-01T12:21:48;9.20;;;3.40;;
44048;SDS011;29717;47.028;15.470;2022-07-01T12:24:15;4.45;;;2.60;;
44048;SDS011;29717;47.028;15.470;2022-07-01T12:26:50;4.70;;;2.90;;
44048;SDS011;29717;47.028;15.470;2022-07-01T12:29:17;7.32;;;2.97;;
44048;SDS011;29717;47.028;15.470;2022-07-01T12:31:53;6.00;;;2.70;;
44048;SDS011;29717;47.028;15.470;2022-07-01T12:34:20;7.85;;;2.42;;
44048;SDS011;29717;47.028;15.470;2022-07-01T12:36:49;4.75;;;2.50;;
44048;SDS011;29717;47.028;15.470;2022-07-01T12:39:17;5.88;;;2.80;;
44048;SDS011;29717;47.028;15.470;2022-07-01T12:41:49;9.13;;;3.13;;
44048;SDS011;29717;47.028;15.470;2022-07-01T12:44:20;6.75;;;2.95;;
44048;SDS011;29717;47.028;15.470;2022-07-01T12:46:47;6.25;;;3.30;;
44048;SDS011;29717;47.028;15.470;2022-07-01T12:49:18;4.25;;;2.80;;
44048;SDS011;29717;47.028;15.470;2022-07-01T12:51:45;4.13;;;2.45;;
44048;SDS011;29717;47.028;15.470;2022-07-01T12:56:55;5.88;;;2.72;;
44048;SDS011;29717;47.028;15.470;2022-07-01T12:59:22;7.95;;;3.08;;
44048;SDS011;29717;47.028;15.470;2022-07-01T13:01:49;8.48;;;2.92;;
44048;SDS011;29717;47.028;15.470;2022-07-01T13:04:23;5.80;;;3.00;;
44048;SDS011;29717;47.028;15.470;2022-07-01T13:06:50;6.03;;;2.80;;
44048;SDS011;29717;47.028;15.470;2022-07-01T13:09:16;7.97;;;3.08;;
44048;SDS011;29717;47.028;15.470;2022-07-01T13:11:43;10.63;;;3.17;;
44048;SDS011;29717;47.028;15.470;2022-07-01T13:14:12;7.38;;;3.20;;
44048;SDS011;29717;47.028;15.470;2022-07-01T13:16:39;8.90;;;3.10;;
44048;SDS011;29717;47.028;15.470;2022-07-01T13:19:06;6.55;;;3.25;;
44048;SDS011;29717;47.028;15.470;2022-07-01T13:21:33;8.48;;;3.28;;
44048;SDS011;29717;47.028;15.470;2022-07-01T13:24:00;7.75;;;3.25;;
44048;SDS011;29717;47.028;15.470;2022-07-01T13:26:27;11.15;;;3.72;;
44048;SDS011;29717;47.028;15.470;2022-07-01T13:28:54;6.35;;;3.30;;
44048;SDS011;29717;47.028;15.470;2022-07-01T13:31:22;9.63;;;3.25;;
44048;SDS011;29717;47.028;15.470;2022-07-01T13:33:49;6.22;;;2.95;;
44048;SDS011;29717;47.028;15.470;2022-07-01T13:36:16;7.00;;;3.03;;
44048;SDS011;29717;47.028;15.470;2022-07-01T13:38:43;7.35;;;3.38;;
44048;SDS011;29717;47.028;15.470;2022-07-01T13:41:10;8.38;;;3.30;;
44048;SDS011;29717;47.028;15.470;2022-07-01T13:43:37;4.75;;;3.15;;
44048;SDS011;29717;47.028;15.470;2022-07-01T13:46:04;7.25;;;3.50;;
44048;SDS011;29717;47.028;15.470;2022-07-01T13:48:32;6.07;;;3.60;;
44048;SDS011;29717;47.028;15.470;2022-07-01T13:50:59;8.00;;;3.50;;
44048;SDS011;29717;47.028;15.470;2022-07-01T13:53:26;7.32;;;2.80;;
44048;SDS011;29717;47.028;15.470;2022-07-01T13:55:53;5.22;;;3.00;;
44048;SDS011;29717;47.028;15.470;2022-07-01T13:58:20;11.32;;;3.30;;
44048;SDS011;29717;47.028;15.470;2022-07-01T14:00:47;5.38;;;3.40;;
44048;SDS011;29717;47.028;15.470;2022-07-01T14:03:14;12.65;;;3.53;;
44048;SDS011;29717;47.028;15.470;2022-07-01T14:05:42;9.10;;;3.15;;
44048;SDS011;29717;47.028;15.470;2022-07-01T14:08:09;5.65;;;3.25;;
44048;SDS011;29717;47.028;15.470;2022-07-01T14:10:36;6.03;;;3.13;;
44048;SDS011;29717;47.028;15.470;2022-07-01T14:13:03;8.25;;;3.30;;
44048;SDS011;29717;47.028;15.470;2022-07-01T14:15:30;9.75;;;3.50;;
44048;SDS011;29717;47.028;15.470;2022-07-01T14:17:57;6.38;;;3.05;;
44048;SDS011;29717;47.028;15.470;2022-07-01T14:20:25;9.90;;;3.15;;
44048;SDS011;29717;47.028;15.470;2022-07-01T14:22:53;5.82;;;2.97;;
44048;SDS011;29717;47.028;15.470;2022-07-01T14:25:20;8.02;;;3.17;;
44048;SDS011;29717;47.028;15.470;2022-07-01T14:27:47;5.97;;;2.97;;
44048;SDS011;29717;47.028;15.470;2022-07-01T14:30:14;8.65;;;2.90;;
44048;SDS011;29717;47.028;15.470;2022-07-01T14:32:41;5.43;;;2.72;;
44048;SDS011;29717;47.028;15.470;2022-07-01T14:35:09;11.30;;;3.05;;
44048;SDS011;29717;47.028;15.470;2022-07-01T14:37:36;6.53;;;2.80;;
44048;SDS011;29717;47.028;15.470;2022-07-01T14:40:07;11.95;;;3.17;;
44048;SDS011;29717;47.028;15.470;2022-07-01T14:42:34;7.50;;;2.80;;